sensor_id;sensor_type;location;lat;lon;timestamp;pressure;altitude;pressure_sealevel;temperature;humidity
48154;BME280;33942;49.272;14.452;2022-07-23T11:25:03;97117.33;;;29.95;36.23
48154;BME280;33942;49.272;14.452;2022-07-23T11:27:37;97111.23;;;30.83;32.39
48154;BME280;33942;49.272;14.452;2022-07-23T11:30:05;97112.15;;;32.48;32.11
48154;BME280;33942;49.272;14.452;2022-07-23T11:32:36;97118.73;;;32.61;31.04
48154;BME280;33942;49.272;14.452;2022-07-23T11:35:19;97113.25;;;32.34;31.24
48154;BME280;33942;49.272;14.452;2022-07-23T11:37:48;97119.49;;;32.45;30.19
48154;BME280;33942;49.272;14.452;2022-07-23T11:40:16;97116.97;;;32.80;31.31
48154;BME280;33942;49.272;14.452;2022-07-23T11:42:52;97122.26;;;33.50;30.21
48154;BME280;33942;49.272;14.452;2022-07-23T11:45:21;97130.61;;;34.09;27.90
48154;BME280;33942;49.272;14.452;2022-07-23T11:47:48;97121.74;;;34.17;26.99
48154;BME280;33942;49.272;14.452;2022-07-23T11:50:16;97117.45;;;33.87;27.81
48154;BME280;33942;49.272;14.452;2022-07-23T11:52:43;97115.32;;;34.55;26.38
48154;BME280;33942;49.272;14.452;2022-07-23T11:55:12;97112.97;;;34.82;26.20
48154;BME280;33942;49.272;14.452;2022-07-23T11:57:40;97115.06;;;34.53;26.47
48154;BME280;33942;49.272;14.452;2022-07-23T12:00:10;97110.08;;;34.88;26.00
48154;BME280;33942;49.272;14.452;2022-07-23T12:02:38;97108.64;;;35.26;26.46
48154;BME280;33942;49.272;14.452;2022-07-23T12:05:07;97111.66;;;34.94;26.73
48154;BME280;33942;49.272;14.452;2022-07-23T12:07:36;97113.83;;;34.24;26.18
48154;BME280;33942;49.272;14.452;2022-07-23T12:10:08;97122.44;;;33.78;27.58
48154;BME280;33942;49.272;14.452;2022-07-23T12:12:37;97115.06;;;32.92;26.80
48154;BME280;33942;49.272;14.452;2022-07-23T12:15:06;97119.85;;;32.70;27.63
48154;BME280;33942;49.272;14.452;2022-07-23T12:17:35;97123.27;;;32.95;28.20
48154;BME280;33942;49.272;14.452;2022-07-23T12:20:05;97124.07;;;32.46;27.75
48154;BME280;33942;49.272;14.452;2022-07-23T12:22:36;97128.19;;;32.13;29.12
48154;BME280;33942;49.272;14.452;2022-07-23T12:25:06;97125.98;;;31.51;29.30
48154;BME280;33942;49.272;14.452;2022-07-23T12:27:34;97126.94;;;31.55;30.31
48154;BME280;33942;49.272;14.452;2022-07-23T12:30:16;97125.36;;;31.20;29.85
48154;BME280;33942;49.272;14.452;2022-07-23T12:32:46;97130.64;;;30.61;30.67
48154;BME280;33942;49.272;14.452;2022-07-23T12:35:13;97124.64;;;30.54;31.59
48154;BME280;33942;49.272;14.452;2022-07-23T12:37:42;97128.07;;;30.33;31.28
48154;BME280;33942;49.272;14.452;2022-07-23T12:40:27;97129.45;;;30.29;32.23
48154;BME280;33942;49.272;14.452;2022-07-23T12:42:56;97129.44;;;29.82;31.81
48154;BME280;33942;49.272;14.452;2022-07-23T12:45:25;97128.95;;;29.91;32.38
48154;BME280;33942;49.272;14.452;2022-07-23T12:47:57;97132.89;;;30.20;32.31
48154;BME280;33942;49.272;14.452;2022-07-23T12:50:36;97137.01;;;30.00;31.85
48154;BME280;33942;49.272;14.452;2022-07-23T12:53:05;97135.72;;;29.87;32.71
48154;BME280;33942;49.272;14.452;2022-07-23T12:55:33;97135.03;;;29.83;32.33
48154;BME280;33942;49.272;14.452;2022-07-23T12:58:10;97133.44;;;29.77;32.65
48154;BME280;33942;49.272;14.452;2022-07-23T13:01:21;97122.64;;;30.06;33.29
48154;BME280;33942;49.272;14.452;2022-07-23T13:03:57;97113.97;;;30.05;33.32
48154;BME280;33942;49.272;14.452;2022-07-23T13:06:25;97110.34;;;30.51;32.75
48154;BME280;33942;49.272;14.452;2022-07-23T16:18:31;97075.44;;;30.58;38.58
48154;BME280;33942;49.272;14.452;2022-07-23T16:20:58;97070.44;;;32.31;35.95
48154;BME280;33942;49.272;14.452;2022-07-23T16:23:25;97069.61;;;33.34;32.65
48154;BME280;33942;49.272;14.452;2022-07-23T16:25:52;97075.11;;;34.16;32.35
48154;BME280;33942;49.272;14.452;2022-07-23T16:28:19;97075.89;;;34.60;31.29
48154;BME280;33942;49.272;14.452;2022-07-23T16:30:47;97080.66;;;34.11;31.06
48154;BME280;33942;49.272;14.452;2022-07-23T16:33:14;97081.29;;;33.83;31.36
48154;BME280;33942;49.272;14.452;2022-07-23T16:35:41;97081.53;;;33.48;31.62
48154;BME280;33942;49.272;14.452;2022-07-23T16:38:09;97077.70;;;33.44;30.79
48154;BME280;33942;49.272;14.452;2022-07-23T16:40:36;97080.55;;;33.63;31.76
48154;BME280;33942;49.272;14.452;2022-07-23T16:43:03;97083.53;;;33.04;32.47
48154;BME280;33942;49.272;14.452;2022-07-23T16:45:31;97087.39;;;33.15;32.34
48154;BME280;33942;49.272;14.452;2022-07-23T16:47:58;97087.68;;;33.28;32.64
48154;BME280;33942;49.272;14.452;2022-07-23T16:50:25;97094.24;;;32.99;32.36
48154;BME280;33942;49.272;14.452;2022-07-23T16:52:52;97090.30;;;32.35;32.36
48154;BME280;33942;49.272;14.452;2022-07-23T16:55:19;97093.00;;;32.47;33.17
48154;BME280;33942;49.272;14.452;2022-07-23T16:57:47;97093.29;;;32.71;32.86
48154;BME280;33942;49.272;14.452;2022-07-23T17:00:15;97089.12;;;32.86;33.23
48154;BME280;33942;49.272;14.452;2022-07-23T17:02:42;97085.06;;;32.97;33.51
48154;BME280;33942;49.272;14.452;2022-07-23T17:05:09;97089.04;;;32.70;33.06
48154;BME280;33942;49.272;14.452;2022-07-23T17:07:37;97091.19;;;32.75;33.39
48154;BME280;33942;49.272;14.452;2022-07-23T17:10:06;97087.53;;;32.77;34.67
48154;BME280;33942;49.272;14.452;2022-07-23T17:12:33;97083.88;;;32.51;34.42
48154;BME280;33942;49.272;14.452;2022-07-23T17:15:01;97087.24;;;32.54;35.29
48154;BME280;33942;49.272;14.452;2022-07-23T17:17:28;97092.65;;;32.09;35.19
48154;BME280;33942;49.272;14.452;2022-07-23T17:19:56;97099.25;;;31.88;36.01
48154;BME280;33942;49.272;14.452;2022-07-23T17:22:23;97098.40;;;31.69;35.87
48154;BME280;33942;49.272;14.452;2022-07-23T17:24:50;97104.14;;;31.99;35.93
48154;BME280;33942;49.272;14.452;2022-07-23T17:27:17;97101.93;;;31.65;35.26
48154;BME280;33942;49.272;14.452;2022-07-23T17:29:44;97100.51;;;31.71;36.44
48154;BME280;33942;49.272;14.452;2022-07-23T17:32:11;97095.39;;;31.87;36.39
48154;BME280;33942;49.272;14.452;2022-07-23T17:34:39;97094.72;;;31.54;36.69
48154;BME280;33942;49.272;14.452;2022-07-23T17:37:06;97098.08;;;31.55;36.51
48154;BME280;33942;49.272;14.452;2022-07-23T17:39:34;97099.67;;;31.30;36.71
48154;BME280;33942;49.272;14.452;2022-07-23T17:42:01;97100.48;;;31.38;37.04
48154;BME280;33942;49.272;14.452;2022-07-23T17:44:30;97104.54;;;30.88;36.45
48154;BME280;33942;49.272;14.452;2022-07-23T17:46:57;97103.34;;;30.47;38.05
48154;BME280;33942;49.272;14.452;2022-07-23T17:49:24;97111.74;;;30.44;38.46
48154;BME280;33942;49.272;14.452;2022-07-23T17:51:51;97113.66;;;30.48;38.47
48154;BME280;33942;49.272;14.452;2022-07-23T17:54:19;97115.58;;;30.50;38.93
48154;BME280;33942;49.272;14.452;2022-07-23T17:56:46;97122.85;;;30.83;39.83
48154;BME280;33942;49.272;14.452;2022-07-23T17:59:14;97123.16;;;30.75;39.11
48154;BME280;33942;49.272;14.452;2022-07-23T18:01:42;97125.98;;;30.45;38.04
48154;BME280;33942;49.272;14.452;2022-07-23T18:04:10;97125.97;;;31.04;37.73
48154;BME280;33942;49.272;14.452;2022-07-23T18:06:37;97126.94;;;31.36;37.19
48154;BME280;33942;49.272;14.452;2022-07-23T18:09:05;97125.46;;;31.15;38.12
48154;BME280;33942;49.272;14.452;2022-07-23T18:11:32;97121.14;;;32.01;38.32
48154;BME280;33942;49.272;14.452;2022-07-23T18:14:00;97113.41;;;32.02;38.39
48154;BME280;33942;49.272;14.452;2022-07-23T18:16:27;97113.31;;;31.40;38.34
48154;BME280;33942;49.272;14.452;2022-07-23T18:18:55;97118.02;;;31.74;38.27
48154;BME280;33942;49.272;14.452;2022-07-23T18:21:22;97123.38;;;31.08;38.27
48154;BME280;33942;49.272;14.452;2022-07-23T18:23:50;97124.51;;;31.17;37.69
48154;BME280;33942;49.272;14.452;2022-07-23T18:26:18;97126.91;;;31.13;37.94
48154;BME280;33942;49.272;14.452;2022-07-23T18:28:45;97130.02;;;31.06;38.26
48154;BME280;33942;49.272;14.452;2022-07-23T18:31:13;97133.14;;;31.11;37.91
48154;BME280;33942;49.272;14.452;2022-07-23T18:33:40;97130.66;;;30.89;38.38
48154;BME280;33942;49.272;14.452;2022-07-23T18:36:08;97130.81;;;30.97;37.94
48154;BME280;33942;49.272;14.452;2022-07-23T18:38:36;97133.44;;;30.56;38.53
48154;BME280;33942;49.272;14.452;2022-07-23T18:41:05;97134.93;;;30.22;39.37
48154;BME280;33942;49.272;14.452;2022-07-23T18:43:32;97138.69;;;29.91;39.76
48154;BME280;33942;49.272;14.452;2022-07-23T18:45:59;97141.20;;;29.54;41.30
48154;BME280;33942;49.272;14.452;2022-07-23T18:48:27;97146.45;;;29.76;41.40
48154;BME280;33942;49.272;14.452;2022-07-23T18:50:54;97146.19;;;29.53;42.15
48154;BME280;33942;49.272;14.452;2022-07-23T18:53:22;97146.26;;;29.48;42.09
48154;BME280;33942;49.272;14.452;2022-07-23T18:55:49;97148.42;;;29.44;42.34
48154;BME280;33942;49.272;14.452;2022-07-23T18:58:17;97152.10;;;29.60;42.31
